Airfield :
LOGIN :

Register | Disclaimer

   EN    FR    IT 

 










Legend :    VFR   Marginal VFR   IFR   Intensive IFR   Very Intensive IFR
Visi :
Ceiling :
>= 8 km
>= 3000ft
5 to 8 km
1000 to 3000 ft
1500m to 5 km
500 to 1000 ft
800 to 1500m
200 to 500 ft
< 800m
< 200 ft
Symbols :   Thunderstorms  Fog  Heavy snow  Heavy precipitations  Wind > 20 kt
SIGMETs :     Misc.  Thunderstorms  Icing  Turbulence  Mountain Waves  Volcanic Ashes






- Airport Elevation : 1416 ft
- IATA code : ZRH


LSZH - Zurich

CURRENT METAR :
  • 300420Z 24005KT 9999 FEW030 10/08 Q1025 NOSIG

EXPIRED METARs :
  • 300350Z 20004KT 9999 FEW030 10/08 Q1025 NOSIG
  • 300320Z 21008KT 9999 FEW030 11/08 Q1025 NOSIG
  • 300250Z 20006KT 9999 FEW030 11/08 Q1025 NOSIG
  • 300220Z 21005KT 9999 FEW030 10/09 Q1025 NOSIG
  • 300150Z 22006KT 9999 FEW035 11/09 Q1025 NOSIG
  • 300120Z 20005KT 9999 SCT030 11/09 Q1025 NOSIG

TAF TAF LSZH
Valid from the 30 at 03:00 until the 31 at 09:00 UTC


300225Z 3003/3109 23005KT 9999 FEW035 TX16/3015Z TN06/3024Z TN05/3102Z
PROB40
TEMPO 3009/3015 26010KT
BECMG 3015/3018 CAVOK
BECMG 3018/3020 4000 BR NSC
BECMG 3020/3022 1200 BCFG
BECMG 3022/3101 0200 FG VV001
BECMG 3107/3109 0900 VV003
ATIS : +41 43 816 2295 (DEP) +41 43 816 2294 (ARR)



MET'MAP, your aeronautical weather chart ! - Copyright ORBIFLY December 2007 - Disclaimer

ORBIFLY MET'MAP TEAM :

Programming & Development : Alexandra Zaïnal
Concept & original design : Baudouin d'Aumeries
Assistance for programming : Marc-Olivier Méhu
Technical & hardware support : Manuel Goepfert

Contact : metmap@orbifly.com




SOURCES & CREDITS :

   NOAA